createdAt,value
2023-06-19T00:03:10.799Z,2.63
2023-06-19T00:08:16.296Z,4.60
2023-06-19T00:13:20.049Z,3.38
2023-06-19T00:18:23.724Z,4.32
2023-06-19T00:23:29.078Z,2.80
2023-06-19T00:28:33.225Z,4.78
2023-06-19T00:33:36.931Z,3.17
2023-06-19T00:38:42.528Z,3.20
2023-06-19T00:43:46.482Z,3.58
2023-06-19T00:48:50.647Z,4.45
2023-06-19T00:53:56.022Z,7.17
2023-06-19T00:59:00.756Z,4.50
2023-06-19T01:04:04.919Z,4.20
2023-06-19T01:09:13.228Z,4.87
2023-06-19T01:14:20.965Z,5.10
2023-06-19T01:19:24.772Z,2.50
2023-06-19T01:24:30.216Z,2.20
2023-06-19T01:29:34.051Z,3.30
2023-06-19T01:34:41.081Z,3.30
2023-06-19T01:39:47.837Z,3.53
2023-06-19T01:44:52.759Z,4.50
2023-06-19T01:49:56.750Z,2.17
2023-06-19T01:55:03.022Z,3.47
2023-06-19T02:00:09.190Z,4.50
2023-06-19T02:05:13.163Z,3.97
2023-06-19T02:10:18.534Z,4.00
2023-06-19T02:20:26.495Z,3.28
2023-06-19T02:30:35.044Z,2.97
2023-06-19T02:35:38.743Z,3.30
2023-06-19T02:40:44.956Z,2.53
2023-06-19T02:45:48.846Z,4.38
2023-06-19T02:50:52.712Z,2.75
2023-06-19T02:55:59.047Z,4.60
2023-06-19T03:01:02.786Z,4.55
2023-06-19T03:06:08.114Z,2.75
2023-06-19T03:11:13.441Z,6.65
2023-06-19T03:16:17.329Z,4.10
2023-06-19T03:21:21.429Z,4.32
2023-06-19T03:26:27.043Z,3.42
2023-06-19T03:36:33.769Z,4.65
2023-06-19T03:41:39.063Z,7.03
2023-06-19T03:46:42.915Z,5.45
2023-06-19T03:51:46.632Z,4.63
2023-06-19T03:56:51.978Z,3.88
2023-06-19T04:01:55.798Z,6.68
2023-06-19T04:06:59.736Z,7.53
2023-06-19T04:12:05.624Z,6.75
2023-06-19T04:17:09.307Z,6.75
2023-06-19T04:22:13.000Z,10.23
2023-06-19T04:27:18.300Z,4.32
2023-06-19T04:32:22.096Z,4.85
2023-06-19T04:37:25.834Z,6.93
2023-06-19T04:42:31.187Z,6.15
2023-06-19T04:47:47.943Z,8.18
2023-06-19T04:52:55.956Z,6.50
2023-06-19T04:58:01.352Z,6.57
2023-06-19T05:03:05.202Z,6.97
2023-06-19T05:08:08.873Z,6.28
2023-06-19T05:13:14.243Z,4.38
2023-06-19T05:18:18.022Z,6.03
2023-06-19T05:23:21.726Z,6.70
2023-06-19T05:28:27.050Z,3.88
2023-06-19T05:33:30.772Z,3.63
2023-06-19T05:38:34.518Z,4.28
2023-06-19T05:43:40.160Z,4.25
2023-06-19T05:48:43.867Z,4.43
2023-06-19T05:53:47.543Z,4.22
2023-06-19T05:58:52.811Z,4.43
2023-06-19T06:03:56.581Z,1.90
2023-06-19T06:09:00.217Z,2.75
2023-06-19T06:14:05.609Z,4.13
2023-06-19T06:19:09.373Z,4.60
2023-06-19T06:24:13.099Z,1.67
2023-06-19T06:29:18.472Z,5.25
2023-06-19T06:34:22.275Z,3.22
2023-06-19T06:39:25.896Z,5.32
2023-06-19T06:44:31.224Z,4.97
2023-06-19T06:49:34.927Z,8.20
2023-06-19T06:54:38.587Z,7.75
2023-06-19T06:59:43.908Z,4.97
2023-06-19T07:04:47.589Z,6.57
2023-06-19T07:09:51.300Z,8.38
2023-06-19T07:14:58.029Z,5.63
2023-06-19T07:20:01.768Z,8.00
2023-06-19T07:25:06.374Z,5.88
2023-06-19T07:30:14.845Z,5.03
2023-06-19T07:35:20.316Z,7.65
2023-06-19T07:40:24.448Z,5.57
2023-06-19T07:45:30.083Z,6.93
2023-06-19T07:50:33.959Z,7.53
2023-06-19T07:55:37.773Z,9.63
2023-06-19T08:00:43.141Z,7.45
2023-06-19T08:05:46.877Z,6.30
2023-06-19T08:10:50.694Z,9.30
2023-06-19T08:15:56.029Z,10.32
2023-06-19T08:20:59.650Z,9.13
2023-06-19T08:26:03.647Z,8.77
2023-06-19T08:31:09.149Z,12.38
2023-06-19T08:36:12.907Z,8.55
2023-06-19T08:41:16.631Z,8.52
2023-06-19T08:46:22.162Z,6.10
2023-06-19T08:51:25.838Z,7.75
2023-06-19T08:56:29.515Z,10.85
2023-06-19T09:01:34.852Z,10.65
2023-06-19T09:06:46.919Z,9.37
2023-06-19T09:12:01.680Z,8.82
2023-06-19T09:17:11.013Z,10.20
2023-06-19T09:22:15.705Z,8.90
2023-06-19T09:27:20.590Z,7.78
2023-06-19T09:32:27.552Z,7.82
2023-06-19T09:37:32.437Z,9.93
2023-06-19T09:42:36.740Z,10.88
2023-06-19T09:47:47.868Z,7.78
2023-06-19T09:52:53.763Z,8.63
2023-06-19T09:57:57.809Z,9.85
2023-06-19T10:03:03.280Z,7.78
2023-06-19T10:08:07.119Z,7.10
2023-06-19T10:13:18.323Z,7.22
2023-06-19T10:18:24.571Z,10.18
2023-06-19T10:23:28.427Z,9.43
2023-06-19T10:28:33.855Z,7.18
2023-06-19T10:33:39.640Z,9.95
2023-06-19T10:38:43.326Z,10.57
2023-06-19T10:43:56.687Z,11.48
2023-06-19T10:49:02.566Z,9.88
2023-06-19T10:54:06.730Z,7.25
2023-06-19T10:59:13.330Z,7.25
2023-06-19T11:04:18.769Z,8.57
2023-06-19T11:09:22.471Z,6.63
2023-06-19T11:14:31.064Z,9.77
2023-06-19T11:19:36.968Z,6.50
2023-06-19T11:24:46.250Z,8.45
2023-06-19T11:29:50.033Z,9.30
2023-06-19T11:34:56.018Z,6.63
2023-06-19T11:45:06.160Z,8.02
2023-06-19T11:50:12.656Z,7.88
2023-06-19T11:55:16.732Z,5.53
2023-06-19T12:00:20.709Z,7.65
2023-06-19T12:05:27.077Z,5.75
2023-06-19T12:10:30.805Z,9.00
2023-06-19T12:15:36.111Z,6.63
2023-06-19T12:20:43.084Z,6.75
2023-06-19T12:25:46.803Z,7.43
2023-06-19T12:30:50.891Z,6.85
2023-06-19T12:35:56.206Z,8.40
2023-06-19T12:41:00.996Z,4.67
2023-06-19T12:46:04.921Z,6.05
2023-06-19T12:51:11.229Z,4.78
2023-06-19T12:56:14.922Z,6.97
2023-06-19T13:01:18.854Z,8.73
2023-06-19T13:06:24.521Z,5.13
2023-06-19T13:11:28.182Z,6.50
2023-06-19T13:16:45.455Z,5.68
2023-06-19T13:21:51.272Z,5.88
2023-06-19T13:26:54.964Z,8.17
2023-06-19T13:31:58.632Z,6.03
2023-06-19T13:37:04.072Z,6.65
2023-06-19T13:42:08.461Z,6.10
2023-06-19T13:47:12.190Z,7.55
2023-06-19T13:52:17.626Z,8.23
2023-06-19T13:57:21.343Z,4.17
2023-06-19T14:02:25.124Z,8.18
2023-06-19T14:07:30.597Z,7.20
2023-06-19T14:12:34.309Z,6.00
2023-06-19T14:17:40.189Z,5.80
2023-06-19T14:22:45.533Z,7.22
2023-06-19T14:27:49.242Z,5.17
2023-06-19T14:32:53.020Z,6.45
2023-06-19T14:37:58.437Z,5.60
2023-06-19T14:43:02.199Z,7.68
2023-06-19T14:48:06.593Z,6.82
2023-06-19T14:53:12.198Z,5.05
2023-06-19T14:58:16.366Z,5.32
2023-06-19T15:03:20.268Z,5.50
2023-06-19T15:08:25.618Z,8.23
2023-06-19T15:13:29.321Z,3.50
2023-06-19T15:18:33.102Z,6.90
2023-06-19T15:23:41.515Z,4.03
2023-06-19T15:28:45.183Z,6.05
2023-06-19T15:33:48.935Z,5.40
2023-06-19T15:38:54.315Z,5.82
2023-06-19T15:49:00.981Z,6.95
2023-06-19T15:54:06.485Z,4.90
2023-06-19T15:59:10.207Z,5.07
2023-06-19T16:04:14.097Z,4.63
2023-06-19T16:09:19.446Z,4.82
2023-06-19T16:14:23.255Z,4.78
2023-06-19T16:19:46.390Z,3.95
2023-06-19T16:25:01.564Z,5.07
2023-06-19T16:30:05.995Z,5.43
2023-06-19T16:35:24.467Z,5.73
2023-06-19T16:40:39.448Z,4.72
2023-06-19T16:45:45.773Z,2.28
2023-06-19T16:50:49.453Z,4.28
2023-06-19T16:55:54.788Z,4.05
2023-06-19T17:00:58.485Z,5.65
2023-06-19T17:06:12.908Z,4.22
2023-06-19T17:11:21.535Z,4.30
2023-06-19T17:16:25.333Z,3.80
2023-06-19T17:21:29.000Z,4.78
2023-06-19T17:26:34.391Z,6.13
2023-06-19T17:31:38.060Z,5.72
2023-06-19T17:36:41.733Z,5.82
2023-06-19T17:41:47.032Z,5.55
2023-06-19T17:46:50.749Z,4.93
2023-06-19T17:51:54.456Z,5.65
2023-06-19T17:56:59.818Z,4.18
2023-06-19T18:02:03.521Z,3.47
2023-06-19T18:07:07.997Z,5.15
2023-06-19T18:12:13.545Z,4.25
2023-06-19T18:17:17.316Z,3.72
2023-06-19T18:22:21.066Z,4.40
2023-06-19T18:27:26.367Z,3.50
2023-06-19T18:32:30.057Z,5.00
2023-06-19T18:37:33.738Z,4.57
2023-06-19T18:42:39.039Z,3.63
2023-06-19T18:47:42.759Z,3.75
2023-06-19T18:52:46.482Z,3.60
2023-06-19T18:57:51.945Z,4.50
2023-06-19T19:02:55.732Z,5.88
2023-06-19T19:07:59.612Z,4.07
2023-06-19T19:13:04.954Z,4.50
2023-06-19T19:18:08.663Z,4.55
2023-06-19T19:23:12.397Z,4.95
2023-06-19T19:28:17.762Z,3.80
2023-06-19T19:33:21.556Z,3.08
2023-06-19T19:38:25.309Z,3.93
2023-06-19T19:43:30.606Z,5.85
2023-06-19T19:48:34.353Z,5.97
2023-06-19T19:53:38.003Z,3.42
2023-06-19T19:58:43.300Z,3.65
2023-06-19T20:03:47.090Z,3.05
2023-06-19T20:08:51.592Z,3.33
2023-06-19T20:13:56.932Z,2.92
2023-06-19T20:19:00.640Z,3.22
2023-06-19T20:24:04.539Z,3.22
2023-06-19T20:29:09.950Z,4.83
2023-06-19T20:34:13.664Z,2.40
2023-06-19T20:39:17.341Z,4.80
2023-06-19T20:44:22.612Z,3.72
2023-06-19T20:49:26.379Z,4.03
2023-06-19T20:54:30.035Z,4.82
2023-06-19T20:59:35.345Z,4.53
2023-06-19T21:04:38.982Z,5.43
2023-06-19T21:09:42.998Z,3.45
2023-06-19T21:14:48.369Z,5.40
2023-06-19T21:19:52.105Z,4.00
2023-06-19T21:24:55.794Z,4.55
2023-06-19T21:30:01.162Z,1.95
2023-06-19T21:35:05.125Z,3.90
2023-06-19T21:40:09.569Z,2.37
2023-06-19T21:45:14.940Z,3.45
2023-06-19T21:50:18.764Z,3.70
2023-06-19T21:55:22.559Z,3.97
2023-06-19T22:00:28.985Z,3.00
2023-06-19T22:05:33.264Z,4.25
2023-06-19T22:10:36.955Z,2.13
2023-06-19T22:15:42.316Z,3.25
2023-06-19T22:20:46.051Z,3.03
2023-06-19T22:25:49.804Z,3.28
2023-06-19T22:30:55.124Z,2.53
2023-06-19T22:35:58.876Z,3.00
2023-06-19T22:41:02.574Z,2.25
2023-06-19T22:46:07.917Z,2.40
2023-06-19T22:51:11.822Z,3.10
2023-06-19T22:56:15.578Z,3.00
2023-06-19T23:01:20.934Z,2.17
2023-06-19T23:06:25.482Z,3.10
2023-06-19T23:11:29.179Z,2.47
2023-06-19T23:16:34.706Z,3.65
2023-06-19T23:21:39.127Z,3.00
2023-06-19T23:26:42.808Z,3.03
2023-06-19T23:31:48.815Z,2.08
2023-06-19T23:36:53.841Z,2.25
2023-06-19T23:41:57.676Z,3.42
2023-06-19T23:47:03.023Z,2.10
2023-06-19T23:52:07.548Z,3.47
2023-06-19T23:57:11.252Z,2.50
